sensor_id;sensor_type;location;lat;lon;timestamp;P1;durP1;ratioP1;P2;durP2;ratioP2
21591;SDS011;10958;50.892;3.992;2023-10-13T00:00:27;14.25;;;7.25;;
21591;SDS011;10958;50.892;3.992;2023-10-13T00:03:01;10.30;;;6.30;;
21591;SDS011;10958;50.892;3.992;2023-10-13T00:05:31;9.38;;;6.75;;
21591;SDS011;10958;50.892;3.992;2023-10-13T00:08:01;17.45;;;6.60;;
21591;SDS011;10958;50.892;3.992;2023-10-13T00:10:28;9.63;;;6.55;;
21591;SDS011;10958;50.892;3.992;2023-10-13T00:12:54;11.18;;;6.53;;
21591;SDS011;10958;50.892;3.992;2023-10-13T00:15:30;16.05;;;6.75;;
21591;SDS011;10958;50.892;3.992;2023-10-13T00:18:03;12.80;;;7.15;;
21591;SDS011;10958;50.892;3.992;2023-10-13T00:20:38;12.25;;;6.90;;
21591;SDS011;10958;50.892;3.992;2023-10-13T00:23:14;10.60;;;6.80;;
21591;SDS011;10958;50.892;3.992;2023-10-13T00:25:44;13.02;;;7.65;;
21591;SDS011;10958;50.892;3.992;2023-10-13T00:28:15;13.93;;;7.75;;
21591;SDS011;10958;50.892;3.992;2023-10-13T00:30:51;13.73;;;7.90;;
21591;SDS011;10958;50.892;3.992;2023-10-13T00:33:24;13.68;;;8.18;;
21591;SDS011;10958;50.892;3.992;2023-10-13T00:35:50;12.27;;;7.90;;
21591;SDS011;10958;50.892;3.992;2023-10-13T00:38:22;9.70;;;7.05;;
21591;SDS011;10958;50.892;3.992;2023-10-13T00:40:49;14.80;;;8.25;;
21591;SDS011;10958;50.892;3.992;2023-10-13T00:43:19;15.35;;;8.70;;
21591;SDS011;10958;50.892;3.992;2023-10-13T00:45:47;17.10;;;9.15;;
21591;SDS011;10958;50.892;3.992;2023-10-13T00:48:22;16.92;;;10.82;;
21591;SDS011;10958;50.892;3.992;2023-10-13T00:51:03;20.67;;;12.85;;
21591;SDS011;10958;50.892;3.992;2023-10-13T00:53:32;19.73;;;14.13;;
21591;SDS011;10958;50.892;3.992;2023-10-13T00:56:02;29.60;;;16.90;;
21591;SDS011;10958;50.892;3.992;2023-10-13T00:58:35;29.20;;;17.17;;
21591;SDS011;10958;50.892;3.992;2023-10-13T01:01:04;25.00;;;17.42;;
21591;SDS011;10958;50.892;3.992;2023-10-13T01:03:47;28.38;;;18.08;;
21591;SDS011;10958;50.892;3.992;2023-10-13T01:06:19;32.35;;;19.40;;
21591;SDS011;10958;50.892;3.992;2023-10-13T01:08:46;26.67;;;18.05;;
21591;SDS011;10958;50.892;3.992;2023-10-13T01:11:18;28.40;;;18.55;;
21591;SDS011;10958;50.892;3.992;2023-10-13T01:13:46;32.63;;;19.40;;
21591;SDS011;10958;50.892;3.992;2023-10-13T01:16:16;34.35;;;19.00;;
21591;SDS011;10958;50.892;3.992;2023-10-13T01:18:43;28.33;;;17.67;;
21591;SDS011;10958;50.892;3.992;2023-10-13T01:21:15;31.15;;;18.50;;
21591;SDS011;10958;50.892;3.992;2023-10-13T01:23:44;32.30;;;19.42;;
21591;SDS011;10958;50.892;3.992;2023-10-13T01:26:11;27.25;;;18.08;;
21591;SDS011;10958;50.892;3.992;2023-10-13T01:28:46;26.98;;;17.52;;
21591;SDS011;10958;50.892;3.992;2023-10-13T01:31:13;31.88;;;18.52;;
21591;SDS011;10958;50.892;3.992;2023-10-13T01:33:49;32.42;;;18.92;;
21591;SDS011;10958;50.892;3.992;2023-10-13T01:36:19;26.80;;;18.80;;
21591;SDS011;10958;50.892;3.992;2023-10-13T01:38:45;31.27;;;19.23;;
21591;SDS011;10958;50.892;3.992;2023-10-13T01:41:12;28.35;;;19.63;;
21591;SDS011;10958;50.892;3.992;2023-10-13T01:43:39;36.22;;;20.75;;
21591;SDS011;10958;50.892;3.992;2023-10-13T01:46:04;31.77;;;19.88;;
21591;SDS011;10958;50.892;3.992;2023-10-13T01:48:30;28.63;;;19.65;;
21591;SDS011;10958;50.892;3.992;2023-10-13T01:51:03;34.60;;;21.38;;
21591;SDS011;10958;50.892;3.992;2023-10-13T01:53:30;31.83;;;20.75;;
21591;SDS011;10958;50.892;3.992;2023-10-13T01:55:56;32.30;;;19.50;;
21591;SDS011;10958;50.892;3.992;2023-10-13T01:58:22;29.48;;;20.55;;
21591;SDS011;10958;50.892;3.992;2023-10-13T02:00:51;29.70;;;18.98;;
21591;SDS011;10958;50.892;3.992;2023-10-13T02:03:17;28.92;;;19.48;;
21591;SDS011;10958;50.892;3.992;2023-10-13T02:05:43;33.42;;;19.50;;
21591;SDS011;10958;50.892;3.992;2023-10-13T02:08:16;33.97;;;19.50;;
21591;SDS011;10958;50.892;3.992;2023-10-13T02:10:47;29.50;;;18.55;;
21591;SDS011;10958;50.892;3.992;2023-10-13T02:13:14;27.70;;;18.73;;
21591;SDS011;10958;50.892;3.992;2023-10-13T02:15:42;28.98;;;17.85;;
21591;SDS011;10958;50.892;3.992;2023-10-13T02:18:09;31.88;;;18.63;;
21591;SDS011;10958;50.892;3.992;2023-10-13T02:20:38;30.63;;;17.27;;
21591;SDS011;10958;50.892;3.992;2023-10-13T02:23:08;27.83;;;17.15;;
21591;SDS011;10958;50.892;3.992;2023-10-13T02:25:37;23.80;;;15.75;;
21591;SDS011;10958;50.892;3.992;2023-10-13T02:28:10;27.65;;;15.98;;
21591;SDS011;10958;50.892;3.992;2023-10-13T02:33:14;27.45;;;16.48;;
21591;SDS011;10958;50.892;3.992;2023-10-13T02:35:45;28.17;;;15.25;;
21591;SDS011;10958;50.892;3.992;2023-10-13T02:38:21;25.98;;;14.68;;
21591;SDS011;10958;50.892;3.992;2023-10-13T02:41:15;25.33;;;15.05;;
21591;SDS011;10958;50.892;3.992;2023-10-13T02:43:51;22.50;;;14.52;;
21591;SDS011;10958;50.892;3.992;2023-10-13T02:46:17;26.40;;;13.90;;
21591;SDS011;10958;50.892;3.992;2023-10-13T02:51:18;24.58;;;14.25;;
21591;SDS011;10958;50.892;3.992;2023-10-13T02:53:47;22.60;;;14.05;;
21591;SDS011;10958;50.892;3.992;2023-10-13T02:56:17;23.63;;;14.57;;
21591;SDS011;10958;50.892;3.992;2023-10-13T02:58:48;20.67;;;13.73;;
21591;SDS011;10958;50.892;3.992;2023-10-13T03:01:18;30.15;;;13.63;;
21591;SDS011;10958;50.892;3.992;2023-10-13T03:03:51;20.15;;;13.35;;
21591;SDS011;10958;50.892;3.992;2023-10-13T03:06:19;23.05;;;13.45;;
21591;SDS011;10958;50.892;3.992;2023-10-13T03:08:48;20.70;;;13.63;;
21591;SDS011;10958;50.892;3.992;2023-10-13T03:11:17;23.85;;;12.77;;
21591;SDS011;10958;50.892;3.992;2023-10-13T03:13:48;22.50;;;12.85;;
21591;SDS011;10958;50.892;3.992;2023-10-13T03:16:16;25.88;;;13.50;;
21591;SDS011;10958;50.892;3.992;2023-10-13T03:18:43;21.35;;;13.07;;
21591;SDS011;10958;50.892;3.992;2023-10-13T03:21:22;25.90;;;12.98;;
21591;SDS011;10958;50.892;3.992;2023-10-13T03:23:58;25.65;;;12.65;;
21591;SDS011;10958;50.892;3.992;2023-10-13T03:26:30;22.48;;;12.88;;
21591;SDS011;10958;50.892;3.992;2023-10-13T03:29:09;23.60;;;12.40;;
21591;SDS011;10958;50.892;3.992;2023-10-13T03:31:39;20.73;;;12.68;;
21591;SDS011;10958;50.892;3.992;2023-10-13T03:34:05;19.58;;;12.35;;
21591;SDS011;10958;50.892;3.992;2023-10-13T03:36:37;20.92;;;11.13;;
21591;SDS011;10958;50.892;3.992;2023-10-13T03:39:21;19.88;;;11.00;;
21591;SDS011;10958;50.892;3.992;2023-10-13T03:41:54;20.58;;;11.07;;
21591;SDS011;10958;50.892;3.992;2023-10-13T03:44:20;17.15;;;11.40;;
21591;SDS011;10958;50.892;3.992;2023-10-13T03:46:46;17.63;;;11.02;;
21591;SDS011;10958;50.892;3.992;2023-10-13T03:49:16;19.58;;;10.95;;
21591;SDS011;10958;50.892;3.992;2023-10-13T03:51:49;19.35;;;11.55;;
21591;SDS011;10958;50.892;3.992;2023-10-13T03:54:19;18.98;;;10.93;;
21591;SDS011;10958;50.892;3.992;2023-10-13T03:56:45;18.35;;;11.10;;
21591;SDS011;10958;50.892;3.992;2023-10-13T03:59:11;22.60;;;11.50;;
21591;SDS011;10958;50.892;3.992;2023-10-13T04:01:40;18.45;;;10.25;;
21591;SDS011;10958;50.892;3.992;2023-10-13T04:04:06;21.38;;;10.20;;
21591;SDS011;10958;50.892;3.992;2023-10-13T04:06:37;18.30;;;10.07;;
21591;SDS011;10958;50.892;3.992;2023-10-13T04:09:15;15.75;;;9.55;;
21591;SDS011;10958;50.892;3.992;2023-10-13T04:11:54;20.00;;;9.73;;
21591;SDS011;10958;50.892;3.992;2023-10-13T04:14:29;20.50;;;9.02;;
21591;SDS011;10958;50.892;3.992;2023-10-13T04:17:17;22.77;;;9.82;;
21591;SDS011;10958;50.892;3.992;2023-10-13T04:19:54;22.33;;;10.20;;
21591;SDS011;10958;50.892;3.992;2023-10-13T04:22:36;19.52;;;10.25;;
21591;SDS011;10958;50.892;3.992;2023-10-13T04:25:12;19.90;;;9.38;;
21591;SDS011;10958;50.892;3.992;2023-10-13T04:27:54;17.00;;;8.95;;
21591;SDS011;10958;50.892;3.992;2023-10-13T04:33:31;15.70;;;8.85;;
21591;SDS011;10958;50.892;3.992;2023-10-13T04:36:04;20.20;;;9.80;;
21591;SDS011;10958;50.892;3.992;2023-10-13T04:38:56;22.92;;;9.23;;
21591;SDS011;10958;50.892;3.992;2023-10-13T04:41:27;16.08;;;8.20;;
21591;SDS011;10958;50.892;3.992;2023-10-13T04:44:01;18.92;;;7.68;;
21591;SDS011;10958;50.892;3.992;2023-10-13T04:46:50;12.98;;;7.43;;
21591;SDS011;10958;50.892;3.992;2023-10-13T04:49:18;14.77;;;8.02;;
21591;SDS011;10958;50.892;3.992;2023-10-13T04:52:01;18.60;;;8.30;;
21591;SDS011;10958;50.892;3.992;2023-10-13T04:54:38;21.67;;;8.40;;
21591;SDS011;10958;50.892;3.992;2023-10-13T04:59:46;17.27;;;8.40;;
21591;SDS011;10958;50.892;3.992;2023-10-13T05:02:31;15.32;;;7.63;;
21591;SDS011;10958;50.892;3.992;2023-10-13T05:05:01;22.80;;;8.75;;
21591;SDS011;10958;50.892;3.992;2023-10-13T05:07:31;20.83;;;8.55;;
21591;SDS011;10958;50.892;3.992;2023-10-13T05:10:16;16.88;;;8.80;;
21591;SDS011;10958;50.892;3.992;2023-10-13T05:13:01;24.95;;;8.10;;
21591;SDS011;10958;50.892;3.992;2023-10-13T05:15:49;17.60;;;7.88;;
21591;SDS011;10958;50.892;3.992;2023-10-13T05:18:36;18.38;;;9.13;;
21591;SDS011;10958;50.892;3.992;2023-10-13T05:21:21;17.38;;;8.13;;
21591;SDS011;10958;50.892;3.992;2023-10-13T05:24:06;20.20;;;8.18;;
21591;SDS011;10958;50.892;3.992;2023-10-13T05:26:51;20.15;;;8.02;;
21591;SDS011;10958;50.892;3.992;2023-10-13T05:29:42;13.73;;;7.65;;
21591;SDS011;10958;50.892;3.992;2023-10-13T05:32:31;13.27;;;7.30;;
21591;SDS011;10958;50.892;3.992;2023-10-13T05:35:19;17.35;;;7.85;;
21591;SDS011;10958;50.892;3.992;2023-10-13T05:38:04;17.17;;;8.07;;
21591;SDS011;10958;50.892;3.992;2023-10-13T05:40:58;15.90;;;7.72;;
21591;SDS011;10958;50.892;3.992;2023-10-13T05:43:47;17.65;;;7.90;;
21591;SDS011;10958;50.892;3.992;2023-10-13T05:46:32;18.63;;;7.75;;
21591;SDS011;10958;50.892;3.992;2023-10-13T05:49:07;24.05;;;7.43;;
21591;SDS011;10958;50.892;3.992;2023-10-13T05:51:36;15.18;;;6.85;;
21591;SDS011;10958;50.892;3.992;2023-10-13T05:54:04;16.55;;;8.10;;
21591;SDS011;10958;50.892;3.992;2023-10-13T05:56:43;25.10;;;7.43;;
21591;SDS011;10958;50.892;3.992;2023-10-13T05:59:28;15.23;;;6.63;;
21591;SDS011;10958;50.892;3.992;2023-10-13T06:02:14;16.65;;;7.25;;
21591;SDS011;10958;50.892;3.992;2023-10-13T06:05:06;16.15;;;7.13;;
21591;SDS011;10958;50.892;3.992;2023-10-13T06:07:52;23.48;;;8.15;;
21591;SDS011;10958;50.892;3.992;2023-10-13T06:10:37;16.42;;;6.85;;
21591;SDS011;10958;50.892;3.992;2023-10-13T06:13:22;18.27;;;7.38;;
21591;SDS011;10958;50.892;3.992;2023-10-13T06:16:09;14.82;;;6.75;;
21591;SDS011;10958;50.892;3.992;2023-10-13T06:18:57;16.70;;;7.03;;
21591;SDS011;10958;50.892;3.992;2023-10-13T06:21:42;14.85;;;6.57;;
21591;SDS011;10958;50.892;3.992;2023-10-13T06:24:28;17.25;;;6.88;;
21591;SDS011;10958;50.892;3.992;2023-10-13T06:27:12;23.48;;;7.05;;
21591;SDS011;10958;50.892;3.992;2023-10-13T06:29:57;18.60;;;6.70;;
21591;SDS011;10958;50.892;3.992;2023-10-13T06:32:23;15.75;;;6.78;;
21591;SDS011;10958;50.892;3.992;2023-10-13T06:37:26;15.65;;;6.32;;
21591;SDS011;10958;50.892;3.992;2023-10-13T06:39:56;18.13;;;6.57;;
21591;SDS011;10958;50.892;3.992;2023-10-13T06:42:24;15.60;;;6.65;;
21591;SDS011;10958;50.892;3.992;2023-10-13T06:44:57;17.20;;;7.00;;
21591;SDS011;10958;50.892;3.992;2023-10-13T06:47:28;20.67;;;6.72;;
21591;SDS011;10958;50.892;3.992;2023-10-13T06:49:54;17.98;;;6.20;;
21591;SDS011;10958;50.892;3.992;2023-10-13T06:52:21;18.58;;;6.07;;
21591;SDS011;10958;50.892;3.992;2023-10-13T06:54:50;15.43;;;5.45;;
21591;SDS011;10958;50.892;3.992;2023-10-13T06:57:20;13.95;;;5.78;;
21591;SDS011;10958;50.892;3.992;2023-10-13T06:59:47;13.00;;;5.82;;
21591;SDS011;10958;50.892;3.992;2023-10-13T07:02:13;14.32;;;5.82;;
21591;SDS011;10958;50.892;3.992;2023-10-13T07:04:48;18.35;;;5.90;;
21591;SDS011;10958;50.892;3.992;2023-10-13T07:07:22;18.08;;;5.53;;
21591;SDS011;10958;50.892;3.992;2023-10-13T07:09:49;13.10;;;5.55;;
21591;SDS011;10958;50.892;3.992;2023-10-13T07:12:20;15.60;;;5.15;;
21591;SDS011;10958;50.892;3.992;2023-10-13T07:14:53;13.13;;;5.80;;
21591;SDS011;10958;50.892;3.992;2023-10-13T07:17:28;15.55;;;5.63;;
21591;SDS011;10958;50.892;3.992;2023-10-13T07:20:03;12.45;;;5.70;;
21591;SDS011;10958;50.892;3.992;2023-10-13T07:22:48;15.73;;;5.50;;
21591;SDS011;10958;50.892;3.992;2023-10-13T07:25:28;17.50;;;5.50;;
21591;SDS011;10958;50.892;3.992;2023-10-13T07:28:00;14.65;;;6.20;;
21591;SDS011;10958;50.892;3.992;2023-10-13T07:30:28;20.25;;;6.20;;
21591;SDS011;10958;50.892;3.992;2023-10-13T07:32:56;23.38;;;6.60;;
21591;SDS011;10958;50.892;3.992;2023-10-13T07:35:25;13.50;;;5.88;;
21591;SDS011;10958;50.892;3.992;2023-10-13T07:37:51;13.98;;;6.20;;
21591;SDS011;10958;50.892;3.992;2023-10-13T07:40:21;20.13;;;6.18;;
21591;SDS011;10958;50.892;3.992;2023-10-13T07:42:51;18.85;;;6.75;;
21591;SDS011;10958;50.892;3.992;2023-10-13T07:45:17;19.10;;;6.60;;
21591;SDS011;10958;50.892;3.992;2023-10-13T07:47:47;17.95;;;5.68;;
21591;SDS011;10958;50.892;3.992;2023-10-13T07:50:13;11.38;;;5.60;;
21591;SDS011;10958;50.892;3.992;2023-10-13T07:52:39;14.73;;;6.07;;
21591;SDS011;10958;50.892;3.992;2023-10-13T07:55:23;16.92;;;5.97;;
21591;SDS011;10958;50.892;3.992;2023-10-13T07:57:49;14.68;;;6.10;;
21591;SDS011;10958;50.892;3.992;2023-10-13T08:03:00;13.85;;;5.80;;
21591;SDS011;10958;50.892;3.992;2023-10-13T08:05:51;17.08;;;5.75;;
21591;SDS011;10958;50.892;3.992;2023-10-13T08:08:31;17.42;;;6.10;;
21591;SDS011;10958;50.892;3.992;2023-10-13T08:11:07;19.88;;;6.43;;
21591;SDS011;10958;50.892;3.992;2023-10-13T08:13:39;22.70;;;6.57;;
21591;SDS011;10958;50.892;3.992;2023-10-13T08:16:12;11.73;;;5.75;;
21591;SDS011;10958;50.892;3.992;2023-10-13T08:18:47;16.20;;;5.82;;
21591;SDS011;10958;50.892;3.992;2023-10-13T08:21:14;17.58;;;5.75;;
21591;SDS011;10958;50.892;3.992;2023-10-13T08:23:50;13.35;;;5.97;;
21591;SDS011;10958;50.892;3.992;2023-10-13T08:26:19;17.85;;;6.28;;
21591;SDS011;10958;50.892;3.992;2023-10-13T08:28:58;10.13;;;5.75;;
21591;SDS011;10958;50.892;3.992;2023-10-13T08:31:51;14.27;;;6.43;;
21591;SDS011;10958;50.892;3.992;2023-10-13T08:34:38;14.55;;;5.82;;
21591;SDS011;10958;50.892;3.992;2023-10-13T08:37:25;15.05;;;5.50;;
21591;SDS011;10958;50.892;3.992;2023-10-13T08:39:58;13.45;;;6.55;;
21591;SDS011;10958;50.892;3.992;2023-10-13T08:42:31;16.27;;;6.28;;
21591;SDS011;10958;50.892;3.992;2023-10-13T08:45:05;9.48;;;5.60;;
21591;SDS011;10958;50.892;3.992;2023-10-13T08:47:48;16.85;;;5.90;;
21591;SDS011;10958;50.892;3.992;2023-10-13T08:50:33;16.58;;;6.38;;
21591;SDS011;10958;50.892;3.992;2023-10-13T08:53:15;19.90;;;6.18;;
21591;SDS011;10958;50.892;3.992;2023-10-13T08:56:05;17.13;;;5.60;;
21591;SDS011;10958;50.892;3.992;2023-10-13T08:58:32;12.25;;;5.00;;
21591;SDS011;10958;50.892;3.992;2023-10-13T09:01:30;15.50;;;5.63;;
21591;SDS011;10958;50.892;3.992;2023-10-13T09:04:16;17.73;;;6.72;;
21591;SDS011;10958;50.892;3.992;2023-10-13T09:12:26;20.55;;;6.15;;
21591;SDS011;10958;50.892;3.992;2023-10-13T09:14:57;15.13;;;6.10;;
21591;SDS011;10958;50.892;3.992;2023-10-13T09:17:27;18.48;;;5.82;;
21591;SDS011;10958;50.892;3.992;2023-10-13T09:20:05;16.67;;;6.05;;
21591;SDS011;10958;50.892;3.992;2023-10-13T09:22:47;16.95;;;6.18;;
21591;SDS011;10958;50.892;3.992;2023-10-13T09:25:36;20.35;;;6.15;;
21591;SDS011;10958;50.892;3.992;2023-10-13T09:28:04;16.73;;;5.70;;
21591;SDS011;10958;50.892;3.992;2023-10-13T09:30:58;15.63;;;5.85;;
21591;SDS011;10958;50.892;3.992;2023-10-13T09:33:24;16.35;;;5.65;;
21591;SDS011;10958;50.892;3.992;2023-10-13T09:36:06;16.35;;;6.07;;
21591;SDS011;10958;50.892;3.992;2023-10-13T09:38:33;13.77;;;6.40;;
21591;SDS011;10958;50.892;3.992;2023-10-13T09:40:59;15.68;;;5.95;;
21591;SDS011;10958;50.892;3.992;2023-10-13T09:43:50;17.27;;;6.70;;
21591;SDS011;10958;50.892;3.992;2023-10-13T09:46:20;13.85;;;5.70;;
21591;SDS011;10958;50.892;3.992;2023-10-13T09:48:49;22.02;;;6.40;;
21591;SDS011;10958;50.892;3.992;2023-10-13T09:51:29;22.83;;;6.53;;
21591;SDS011;10958;50.892;3.992;2023-10-13T09:56:51;13.07;;;5.65;;
21591;SDS011;10958;50.892;3.992;2023-10-13T09:59:24;16.60;;;6.00;;
21591;SDS011;10958;50.892;3.992;2023-10-13T10:03:48;10.93;;;5.60;;
21591;SDS011;10958;50.892;3.992;2023-10-13T10:06:21;14.38;;;6.05;;
21591;SDS011;10958;50.892;3.992;2023-10-13T10:09:14;13.52;;;5.75;;
21591;SDS011;10958;50.892;3.992;2023-10-13T10:14:41;14.07;;;6.30;;
21591;SDS011;10958;50.892;3.992;2023-10-13T10:17:19;13.55;;;5.53;;
21591;SDS011;10958;50.892;3.992;2023-10-13T10:19:53;16.35;;;5.63;;
21591;SDS011;10958;50.892;3.992;2023-10-13T10:22:29;13.63;;;5.82;;
21591;SDS011;10958;50.892;3.992;2023-10-13T10:24:58;18.65;;;6.55;;
21591;SDS011;10958;50.892;3.992;2023-10-13T10:27:28;12.13;;;6.65;;
21591;SDS011;10958;50.892;3.992;2023-10-13T10:29:55;17.10;;;5.97;;
21591;SDS011;10958;50.892;3.992;2023-10-13T10:32:31;22.42;;;5.95;;
21591;SDS011;10958;50.892;3.992;2023-10-13T10:37:45;19.50;;;6.30;;
21591;SDS011;10958;50.892;3.992;2023-10-13T10:40:15;16.35;;;6.30;;
21591;SDS011;10958;50.892;3.992;2023-10-13T10:43:04;19.10;;;6.93;;
21591;SDS011;10958;50.892;3.992;2023-10-13T10:48:02;13.70;;;5.70;;
21591;SDS011;10958;50.892;3.992;2023-10-13T10:50:43;11.55;;;6.35;;
21591;SDS011;10958;50.892;3.992;2023-10-13T10:53:23;18.60;;;6.85;;
21591;SDS011;10958;50.892;3.992;2023-10-13T10:56:07;20.23;;;6.03;;
21591;SDS011;10958;50.892;3.992;2023-10-13T10:58:44;17.77;;;6.90;;
21591;SDS011;10958;50.892;3.992;2023-10-13T11:01:14;15.63;;;6.18;;
21591;SDS011;10958;50.892;3.992;2023-10-13T11:04:01;16.88;;;6.18;;
21591;SDS011;10958;50.892;3.992;2023-10-13T11:06:47;16.98;;;6.05;;
21591;SDS011;10958;50.892;3.992;2023-10-13T11:09:29;20.83;;;6.65;;
21591;SDS011;10958;50.892;3.992;2023-10-13T11:11:56;23.17;;;7.22;;
21591;SDS011;10958;50.892;3.992;2023-10-13T11:14:40;12.90;;;5.68;;
21591;SDS011;10958;50.892;3.992;2023-10-13T11:17:06;19.70;;;6.10;;
21591;SDS011;10958;50.892;3.992;2023-10-13T11:19:46;17.90;;;6.40;;
21591;SDS011;10958;50.892;3.992;2023-10-13T11:25:00;17.67;;;5.70;;
21591;SDS011;10958;50.892;3.992;2023-10-13T11:27:39;14.95;;;6.13;;
21591;SDS011;10958;50.892;3.992;2023-10-13T11:30:12;23.58;;;5.88;;
21591;SDS011;10958;50.892;3.992;2023-10-13T11:32:40;14.65;;;6.18;;
21591;SDS011;10958;50.892;3.992;2023-10-13T11:35:10;14.15;;;5.57;;
21591;SDS011;10958;50.892;3.992;2023-10-13T11:37:49;19.02;;;6.45;;
21591;SDS011;10958;50.892;3.992;2023-10-13T11:40:44;16.17;;;6.05;;
21591;SDS011;10958;50.892;3.992;2023-10-13T11:43:29;12.48;;;5.63;;
21591;SDS011;10958;50.892;3.992;2023-10-13T11:46:10;15.45;;;5.78;;
21591;SDS011;10958;50.892;3.992;2023-10-13T11:48:43;12.80;;;5.88;;
21591;SDS011;10958;50.892;3.992;2023-10-13T11:51:11;20.88;;;6.60;;
21591;SDS011;10958;50.892;3.992;2023-10-13T11:54:05;17.42;;;5.75;;
21591;SDS011;10958;50.892;3.992;2023-10-13T11:56:30;21.30;;;6.30;;
21591;SDS011;10958;50.892;3.992;2023-10-13T11:58:56;17.52;;;5.78;;
21591;SDS011;10958;50.892;3.992;2023-10-13T12:01:30;17.63;;;5.80;;
21591;SDS011;10958;50.892;3.992;2023-10-13T12:04:15;20.70;;;6.07;;
21591;SDS011;10958;50.892;3.992;2023-10-13T12:06:58;13.95;;;5.97;;
21591;SDS011;10958;50.892;3.992;2023-10-13T12:09:45;22.55;;;8.82;;
21591;SDS011;10958;50.892;3.992;2023-10-13T12:12:27;20.13;;;7.95;;
21591;SDS011;10958;50.892;3.992;2023-10-13T12:14:56;17.50;;;6.20;;
21591;SDS011;10958;50.892;3.992;2023-10-13T12:17:22;12.75;;;5.63;;
21591;SDS011;10958;50.892;3.992;2023-10-13T12:19:56;19.95;;;5.95;;
21591;SDS011;10958;50.892;3.992;2023-10-13T12:22:24;17.48;;;5.95;;
21591;SDS011;10958;50.892;3.992;2023-10-13T12:25:10;16.23;;;6.60;;
21591;SDS011;10958;50.892;3.992;2023-10-13T12:27:55;15.40;;;5.90;;
21591;SDS011;10958;50.892;3.992;2023-10-13T12:30:37;15.68;;;5.70;;
21591;SDS011;10958;50.892;3.992;2023-10-13T12:33:18;15.15;;;5.05;;
21591;SDS011;10958;50.892;3.992;2023-10-13T12:35:50;15.15;;;5.65;;
21591;SDS011;10958;50.892;3.992;2023-10-13T12:38:53;17.08;;;5.55;;
21591;SDS011;10958;50.892;3.992;2023-10-13T12:41:34;10.10;;;5.10;;
21591;SDS011;10958;50.892;3.992;2023-10-13T12:44:18;15.95;;;5.85;;
21591;SDS011;10958;50.892;3.992;2023-10-13T12:47:02;18.42;;;6.03;;
21591;SDS011;10958;50.892;3.992;2023-10-13T12:49:46;11.05;;;5.40;;
21591;SDS011;10958;50.892;3.992;2023-10-13T12:52:12;10.90;;;5.13;;
21591;SDS011;10958;50.892;3.992;2023-10-13T12:54:45;11.32;;;5.18;;
21591;SDS011;10958;50.892;3.992;2023-10-13T12:57:32;14.32;;;5.68;;
21591;SDS011;10958;50.892;3.992;2023-10-13T12:59:59;12.35;;;5.63;;
21591;SDS011;10958;50.892;3.992;2023-10-13T13:02:26;18.35;;;6.18;;
21591;SDS011;10958;50.892;3.992;2023-10-13T13:04:56;16.58;;;5.63;;
21591;SDS011;10958;50.892;3.992;2023-10-13T13:07:27;14.68;;;6.00;;
21591;SDS011;10958;50.892;3.992;2023-10-13T13:09:54;17.83;;;5.85;;
21591;SDS011;10958;50.892;3.992;2023-10-13T13:12:29;12.68;;;5.25;;
21591;SDS011;10958;50.892;3.992;2023-10-13T13:14:55;16.90;;;5.20;;
21591;SDS011;10958;50.892;3.992;2023-10-13T13:17:21;14.20;;;5.43;;
21591;SDS011;10958;50.892;3.992;2023-10-13T13:19:47;11.15;;;5.68;;
21591;SDS011;10958;50.892;3.992;2023-10-13T13:22:12;14.23;;;5.90;;
21591;SDS011;10958;50.892;3.992;2023-10-13T13:24:39;14.40;;;5.93;;
21591;SDS011;10958;50.892;3.992;2023-10-13T13:27:11;22.08;;;6.00;;
21591;SDS011;10958;50.892;3.992;2023-10-13T13:29:44;15.80;;;5.40;;
21591;SDS011;10958;50.892;3.992;2023-10-13T13:32:10;16.27;;;6.05;;
21591;SDS011;10958;50.892;3.992;2023-10-13T13:34:44;15.13;;;5.47;;
21591;SDS011;10958;50.892;3.992;2023-10-13T13:37:18;12.63;;;5.65;;
21591;SDS011;10958;50.892;3.992;2023-10-13T13:39:45;13.77;;;5.85;;
21591;SDS011;10958;50.892;3.992;2023-10-13T13:42:13;16.00;;;5.10;;
21591;SDS011;10958;50.892;3.992;2023-10-13T13:44:43;18.45;;;6.10;;
21591;SDS011;10958;50.892;3.992;2023-10-13T13:47:15;11.77;;;5.20;;
21591;SDS011;10958;50.892;3.992;2023-10-13T13:49:42;11.65;;;5.40;;
21591;SDS011;10958;50.892;3.992;2023-10-13T13:52:17;13.88;;;4.93;;
21591;SDS011;10958;50.892;3.992;2023-10-13T13:54:46;10.10;;;5.10;;
21591;SDS011;10958;50.892;3.992;2023-10-13T13:57:13;15.30;;;5.55;;
21591;SDS011;10958;50.892;3.992;2023-10-13T13:59:39;10.30;;;5.22;;
21591;SDS011;10958;50.892;3.992;2023-10-13T14:02:08;13.35;;;5.10;;
21591;SDS011;10958;50.892;3.992;2023-10-13T14:04:45;11.60;;;5.82;;
21591;SDS011;10958;50.892;3.992;2023-10-13T14:07:20;17.42;;;5.18;;
21591;SDS011;10958;50.892;3.992;2023-10-13T14:09:49;15.40;;;5.70;;
21591;SDS011;10958;50.892;3.992;2023-10-13T14:12:18;11.23;;;5.45;;
21591;SDS011;10958;50.892;3.992;2023-10-13T14:15:13;14.15;;;5.78;;
21591;SDS011;10958;50.892;3.992;2023-10-13T14:17:48;12.32;;;5.35;;
21591;SDS011;10958;50.892;3.992;2023-10-13T14:20:15;11.85;;;5.20;;
21591;SDS011;10958;50.892;3.992;2023-10-13T14:22:44;15.88;;;5.60;;
21591;SDS011;10958;50.892;3.992;2023-10-13T14:25:13;12.15;;;5.00;;
21591;SDS011;10958;50.892;3.992;2023-10-13T14:27:41;12.00;;;5.65;;
21591;SDS011;10958;50.892;3.992;2023-10-13T14:30:07;10.95;;;5.05;;
21591;SDS011;10958;50.892;3.992;2023-10-13T14:32:33;11.57;;;5.30;;
21591;SDS011;10958;50.892;3.992;2023-10-13T14:35:05;11.00;;;5.40;;
21591;SDS011;10958;50.892;3.992;2023-10-13T14:37:39;13.70;;;5.43;;
21591;SDS011;10958;50.892;3.992;2023-10-13T14:40:06;15.82;;;5.32;;
21591;SDS011;10958;50.892;3.992;2023-10-13T14:42:37;9.35;;;4.55;;
21591;SDS011;10958;50.892;3.992;2023-10-13T14:45:08;18.77;;;5.13;;
21591;SDS011;10958;50.892;3.992;2023-10-13T14:47:42;13.27;;;6.38;;
21591;SDS011;10958;50.892;3.992;2023-10-13T14:50:08;16.90;;;6.05;;
21591;SDS011;10958;50.892;3.992;2023-10-13T14:52:45;11.23;;;5.60;;
21591;SDS011;10958;50.892;3.992;2023-10-13T14:55:11;13.48;;;5.30;;
21591;SDS011;10958;50.892;3.992;2023-10-13T14:57:47;15.15;;;5.70;;
21591;SDS011;10958;50.892;3.992;2023-10-13T15:00:15;11.05;;;5.60;;
21591;SDS011;10958;50.892;3.992;2023-10-13T15:02:49;17.33;;;5.40;;
21591;SDS011;10958;50.892;3.992;2023-10-13T15:05:15;14.68;;;5.57;;
21591;SDS011;10958;50.892;3.992;2023-10-13T15:07:43;11.80;;;5.70;;
21591;SDS011;10958;50.892;3.992;2023-10-13T15:10:11;14.77;;;5.53;;
21591;SDS011;10958;50.892;3.992;2023-10-13T15:12:43;12.95;;;5.57;;
21591;SDS011;10958;50.892;3.992;2023-10-13T15:15:13;14.55;;;5.63;;
21591;SDS011;10958;50.892;3.992;2023-10-13T15:17:41;14.10;;;6.15;;
21591;SDS011;10958;50.892;3.992;2023-10-13T15:20:07;16.88;;;5.95;;
21591;SDS011;10958;50.892;3.992;2023-10-13T15:22:43;12.27;;;5.22;;
21591;SDS011;10958;50.892;3.992;2023-10-13T15:25:09;12.10;;;4.97;;
21591;SDS011;10958;50.892;3.992;2023-10-13T15:27:59;16.65;;;6.47;;
21591;SDS011;10958;50.892;3.992;2023-10-13T15:30:29;10.77;;;5.22;;
21591;SDS011;10958;50.892;3.992;2023-10-13T15:33:17;12.50;;;5.13;;
21591;SDS011;10958;50.892;3.992;2023-10-13T15:35:45;13.38;;;5.15;;
21591;SDS011;10958;50.892;3.992;2023-10-13T15:38:11;13.15;;;6.07;;
21591;SDS011;10958;50.892;3.992;2023-10-13T15:40:46;20.13;;;5.28;;
21591;SDS011;10958;50.892;3.992;2023-10-13T15:43:19;12.45;;;5.30;;
21591;SDS011;10958;50.892;3.992;2023-10-13T15:45:45;16.40;;;5.65;;
21591;SDS011;10958;50.892;3.992;2023-10-13T15:48:11;15.27;;;5.00;;